< < Back
Terminal Aerodrome Forecast


Current Version              Previous Versions:   1  2  3  4  5  6  7  8  9  

Terminal Aerodrome Forecast

219
FTUS42 KTAE 290100 AAB
TAFTLH
TAF AMD
KTLH 290118Z 2901/2924 26005KT P6SM SCT040
      TEMPO 2901/2902 VRB15KT 5SM -TSRA BKN020CB OVC040
     FM290300 32006KT P6SM SCT030 BKN100
     FM291200 34008KT P6SM SCT120
     FM291700 31011KT P6SM SKC=

Latest METAR

510
SAUS80 KWBC 291700
MTRTLH
METAR KTLH 291653Z 33003KT 10SM FEW065 SCT120 SCT250 32/18 A2998 RMK AO2
SLPNO T03170178 $


USA.gov is the U.S. government's official web portal to all federal, state and local government web resources and services.